createdAt,value
2023-04-06T00:00:33.705Z,100.00
2023-04-06T00:03:03.200Z,100.00
2023-04-06T00:05:32.447Z,100.00
2023-04-06T00:08:01.867Z,100.00
2023-04-06T00:10:32.538Z,100.00
2023-04-06T00:13:02.284Z,100.00
2023-04-06T00:15:31.744Z,100.00
2023-04-06T00:18:00.996Z,100.00
2023-04-06T00:20:30.564Z,100.00
2023-04-06T00:22:59.928Z,100.00
2023-04-06T00:25:29.187Z,100.00
2023-04-06T00:27:59.841Z,100.00
2023-04-06T00:30:29.144Z,100.00
2023-04-06T00:32:58.382Z,100.00
2023-04-06T00:35:27.671Z,100.00
2023-04-06T00:37:56.865Z,100.00
2023-04-06T00:40:26.265Z,100.00
2023-04-06T00:42:55.639Z,100.00
2023-04-06T00:45:26.242Z,100.00
2023-04-06T00:47:55.520Z,100.00
2023-04-06T00:50:24.717Z,100.00
2023-04-06T00:52:53.959Z,100.00
2023-04-06T00:55:28.826Z,100.00
2023-04-06T00:58:01.279Z,100.00
2023-04-06T01:00:34.918Z,100.00
2023-04-06T01:03:07.165Z,100.00
2023-04-06T01:05:43.615Z,100.00
2023-04-06T01:08:21.851Z,100.00
2023-04-06T01:10:54.747Z,100.00
2023-04-06T01:13:30.696Z,100.00
2023-04-06T01:16:08.888Z,100.00
2023-04-06T01:18:56.697Z,100.00
2023-04-06T01:21:31.077Z,100.00
2023-04-06T01:24:16.880Z,100.00
2023-04-06T01:27:04.978Z,100.00
2023-04-06T01:29:44.154Z,100.00
2023-04-06T01:32:16.988Z,100.00
2023-04-06T01:34:52.030Z,100.00
2023-04-06T01:37:21.649Z,100.00
2023-04-06T01:39:53.798Z,100.00
2023-04-06T01:42:36.485Z,100.00
2023-04-06T01:45:07.498Z,100.00
2023-04-06T01:47:36.847Z,100.00
2023-04-06T01:50:08.450Z,100.00
2023-04-06T01:52:44.865Z,100.00
2023-04-06T01:55:16.819Z,100.00
2023-04-06T01:58:04.448Z,100.00
2023-04-06T02:00:38.575Z,100.00
2023-04-06T02:03:08.868Z,100.00
2023-04-06T02:05:39.205Z,100.00
2023-04-06T02:08:20.181Z,100.00
2023-04-06T02:10:51.212Z,100.00
2023-04-06T02:13:30.016Z,100.00
2023-04-06T02:15:59.758Z,100.00
2023-04-06T02:18:32.439Z,100.00
2023-04-06T02:21:01.692Z,100.00
2023-04-06T02:23:31.012Z,100.00
2023-04-06T02:26:01.789Z,100.00
2023-04-06T02:28:31.249Z,100.00
2023-04-06T02:31:00.801Z,100.00
2023-04-06T02:33:30.318Z,100.00
2023-04-06T02:35:59.733Z,100.00
2023-04-06T02:38:29.304Z,100.00
2023-04-06T02:40:58.479Z,100.00
2023-04-06T02:43:32.296Z,100.00
2023-04-06T02:46:08.202Z,100.00
2023-04-06T02:48:40.954Z,100.00
2023-04-06T02:51:10.242Z,100.00
2023-04-06T02:53:40.603Z,100.00
2023-04-06T02:56:10.001Z,100.00
2023-04-06T02:58:53.594Z,100.00
2023-04-06T03:01:26.724Z,100.00
2023-04-06T03:04:00.814Z,100.00
2023-04-06T03:06:32.414Z,100.00
2023-04-06T03:09:09.908Z,100.00
2023-04-06T03:11:41.920Z,100.00
2023-04-06T03:14:12.630Z,100.00
2023-04-06T03:16:41.902Z,100.00
2023-04-06T03:19:11.455Z,100.00
2023-04-06T03:21:40.657Z,100.00
2023-04-06T03:24:10.700Z,100.00
2023-04-06T03:26:39.940Z,100.00
2023-04-06T03:29:12.237Z,100.00
2023-04-06T03:31:41.706Z,100.00
2023-04-06T03:34:28.822Z,100.00
2023-04-06T03:37:09.309Z,100.00
2023-04-06T03:39:44.303Z,100.00
2023-04-06T03:42:18.840Z,100.00
2023-04-06T03:44:55.590Z,100.00
2023-04-06T03:47:25.998Z,100.00
2023-04-06T03:49:59.934Z,100.00
2023-04-06T03:52:29.334Z,100.00
2023-04-06T03:55:01.554Z,100.00
2023-04-06T03:57:30.869Z,100.00
2023-04-06T04:00:02.226Z,100.00
2023-04-06T04:02:42.088Z,100.00
2023-04-06T04:05:12.012Z,100.00
2023-04-06T04:07:41.282Z,100.00
2023-04-06T04:10:12.623Z,100.00
2023-04-06T04:12:41.990Z,100.00
2023-04-06T04:15:13.025Z,100.00
2023-04-06T04:17:44.213Z,100.00
2023-04-06T04:20:14.576Z,100.00
2023-04-06T04:22:44.159Z,100.00
2023-04-06T04:25:13.949Z,100.00
2023-04-06T04:27:48.367Z,100.00
2023-04-06T04:30:19.639Z,100.00
2023-04-06T04:32:48.876Z,100.00
2023-04-06T04:35:22.001Z,100.00
2023-04-06T04:37:52.430Z,100.00
2023-04-06T04:40:22.033Z,100.00
2023-04-06T04:43:00.721Z,100.00
2023-04-06T04:45:37.478Z,100.00
2023-04-06T04:48:18.992Z,100.00
2023-04-06T04:50:58.542Z,100.00
2023-04-06T04:53:32.932Z,100.00
2023-04-06T04:56:10.772Z,100.00
2023-04-06T04:58:40.088Z,100.00
2023-04-06T05:01:10.879Z,100.00
2023-04-06T05:03:41.413Z,100.00
2023-04-06T05:06:14.998Z,100.00
2023-04-06T05:08:45.168Z,100.00
2023-04-06T05:11:15.040Z,100.00
2023-04-06T05:13:48.946Z,100.00
2023-04-06T05:16:23.933Z,100.00
2023-04-06T05:18:53.984Z,100.00
2023-04-06T05:21:26.080Z,100.00
2023-04-06T05:24:09.618Z,100.00
2023-04-06T05:26:40.320Z,100.00
2023-04-06T05:29:15.978Z,100.00
2023-04-06T05:31:46.868Z,100.00
2023-04-06T05:34:16.947Z,100.00
2023-04-06T05:36:46.503Z,100.00
2023-04-06T05:39:24.691Z,100.00
2023-04-06T05:41:56.186Z,100.00
2023-04-06T05:44:39.802Z,100.00
2023-04-06T05:47:15.250Z,100.00
2023-04-06T05:49:46.201Z,100.00
2023-04-06T05:52:23.592Z,100.00
2023-04-06T05:54:52.845Z,100.00
2023-04-06T05:57:22.083Z,100.00
2023-04-06T05:59:52.638Z,100.00
2023-04-06T06:02:25.055Z,100.00
2023-04-06T06:04:56.220Z,100.00
2023-04-06T06:07:27.056Z,100.00
2023-04-06T06:10:02.520Z,100.00
2023-04-06T06:12:35.446Z,100.00
2023-04-06T06:15:05.584Z,100.00
2023-04-06T06:17:40.979Z,100.00
2023-04-06T06:20:11.529Z,100.00
2023-04-06T06:22:41.266Z,100.00
2023-04-06T06:25:14.977Z,100.00
2023-04-06T06:27:44.341Z,100.00
2023-04-06T06:30:14.641Z,100.00
2023-04-06T06:32:47.292Z,100.00
2023-04-06T06:35:16.809Z,97.55
2023-04-06T06:37:46.412Z,95.46
2023-04-06T06:40:19.762Z,89.63
2023-04-06T06:42:51.060Z,90.54
2023-04-06T06:45:50.102Z,91.72
2023-04-06T06:48:21.146Z,89.55
2023-04-06T06:50:50.603Z,88.13
2023-04-06T06:53:19.872Z,86.83
2023-04-06T06:55:49.932Z,86.41
2023-04-06T06:58:21.610Z,84.76
2023-04-06T07:00:51.540Z,82.62
2023-04-06T07:03:22.263Z,78.31
2023-04-06T07:05:54.458Z,68.68
2023-04-06T07:08:29.598Z,60.83
2023-04-06T07:10:59.007Z,59.36
2023-04-06T07:13:28.717Z,54.61
2023-04-06T07:16:00.862Z,55.15
2023-04-06T07:18:34.844Z,50.51
2023-04-06T07:21:06.800Z,50.47
2023-04-06T07:23:36.052Z,48.42
2023-04-06T07:26:13.345Z,47.09
2023-04-06T07:28:42.852Z,47.07
2023-04-06T07:31:14.936Z,46.48
2023-04-06T07:33:49.057Z,46.87
2023-04-06T07:36:19.161Z,45.32
2023-04-06T07:38:48.777Z,44.84
2023-04-06T07:41:18.241Z,45.14
2023-04-06T07:43:47.658Z,43.97
2023-04-06T07:46:17.776Z,43.97
2023-04-06T07:48:48.650Z,45.53
2023-04-06T07:51:19.326Z,42.90
2023-04-06T07:53:49.614Z,41.49
2023-04-06T07:56:19.191Z,42.96
2023-04-06T07:58:48.495Z,42.34
2023-04-06T08:01:17.685Z,41.59
2023-04-06T08:03:48.553Z,41.94
2023-04-06T08:06:20.957Z,41.68
2023-04-06T08:08:50.197Z,41.64
2023-04-06T08:11:19.515Z,41.04
2023-04-06T08:13:48.867Z,41.10
2023-04-06T08:16:18.213Z,45.03
2023-04-06T08:18:49.006Z,41.52
2023-04-06T08:21:18.527Z,39.51
2023-04-06T08:23:48.206Z,40.53
2023-04-06T08:26:20.898Z,39.18
2023-04-06T08:28:50.108Z,39.91
2023-04-06T08:31:19.483Z,39.61
2023-04-06T08:33:53.034Z,40.13
2023-04-06T08:36:23.884Z,38.19
2023-04-06T08:38:53.514Z,39.15
2023-04-06T08:41:22.930Z,40.42
2023-04-06T08:43:58.465Z,40.08
2023-04-06T08:46:31.006Z,39.18
2023-04-06T08:49:07.616Z,39.42
2023-04-06T08:51:39.760Z,38.59
2023-04-06T08:54:09.269Z,39.00
2023-04-06T08:56:41.478Z,38.97
2023-04-06T08:59:12.609Z,38.28
2023-04-06T09:01:45.350Z,37.70
2023-04-06T09:04:16.844Z,39.42
2023-04-06T09:06:46.573Z,39.36
2023-04-06T09:09:16.332Z,36.80
2023-04-06T09:11:48.151Z,37.36
2023-04-06T09:14:18.699Z,38.54
2023-04-06T09:16:48.598Z,40.35
2023-04-06T09:19:30.226Z,39.07
2023-04-06T09:22:08.122Z,39.44
2023-04-06T09:24:47.258Z,37.34
2023-04-06T09:27:17.592Z,35.84
2023-04-06T09:29:47.515Z,37.60
2023-04-06T09:32:18.290Z,38.00
2023-04-06T09:34:50.801Z,37.34
2023-04-06T09:37:21.658Z,35.83
2023-04-06T09:39:53.241Z,36.13
2023-04-06T09:42:28.586Z,34.13
2023-04-06T09:44:57.890Z,32.39
2023-04-06T09:47:29.451Z,32.21
2023-04-06T09:50:02.215Z,33.61
2023-04-06T09:52:35.579Z,34.09
2023-04-06T09:55:09.142Z,36.58
2023-04-06T09:57:51.942Z,36.67
2023-04-06T10:00:25.042Z,35.18
2023-04-06T10:03:08.546Z,33.33
2023-04-06T10:05:46.088Z,35.26
2023-04-06T10:08:16.358Z,34.87
2023-04-06T10:10:45.982Z,31.39
2023-04-06T10:13:15.239Z,31.82
2023-04-06T10:15:45.316Z,33.50
2023-04-06T10:18:15.687Z,32.51
2023-04-06T10:20:57.256Z,32.16
2023-04-06T10:23:34.997Z,35.80
2023-04-06T10:26:05.177Z,34.52
2023-04-06T10:28:37.372Z,31.60
2023-04-06T10:31:08.573Z,32.68
2023-04-06T10:33:38.154Z,33.98
2023-04-06T10:36:16.700Z,32.18
2023-04-06T10:38:46.447Z,30.79
2023-04-06T10:41:19.443Z,31.15
2023-04-06T10:43:58.485Z,31.15
2023-04-06T10:46:28.960Z,30.39
2023-04-06T10:48:59.355Z,30.85
2023-04-06T10:51:30.761Z,30.29
2023-04-06T10:54:04.234Z,30.03
2023-04-06T10:56:36.535Z,33.74
2023-04-06T10:59:05.823Z,30.89
2023-04-06T11:01:35.061Z,29.08
2023-04-06T11:04:04.343Z,30.52
2023-04-06T11:06:35.044Z,27.60
2023-04-06T11:09:04.260Z,30.06
2023-04-06T11:11:33.545Z,29.12
2023-04-06T11:14:04.224Z,26.64
2023-04-06T11:16:34.805Z,26.07
2023-04-06T11:19:07.128Z,25.62
2023-04-06T11:21:40.515Z,28.72
2023-04-06T11:24:14.566Z,27.95
2023-04-06T11:26:46.953Z,27.50
2023-04-06T11:29:20.390Z,25.65
2023-04-06T11:31:52.181Z,25.10
2023-04-06T11:34:22.992Z,26.60
2023-04-06T11:36:58.840Z,25.02
2023-04-06T11:39:30.673Z,29.10
2023-04-06T11:42:03.391Z,26.65
2023-04-06T11:44:37.263Z,29.75
2023-04-06T11:47:08.347Z,23.84
2023-04-06T11:49:40.919Z,25.12
2023-04-06T11:52:20.415Z,25.82
2023-04-06T11:54:51.323Z,26.23
2023-04-06T11:57:22.494Z,25.43
2023-04-06T11:59:52.034Z,23.63
2023-04-06T12:02:21.756Z,22.04
2023-04-06T12:04:51.196Z,24.01
2023-04-06T12:07:21.950Z,23.98
2023-04-06T12:09:51.363Z,22.35
2023-04-06T12:12:20.541Z,22.38
2023-04-06T12:14:49.841Z,21.00
2023-04-06T12:17:19.093Z,21.59
2023-04-06T12:19:51.371Z,21.20
2023-04-06T12:22:22.225Z,24.77
2023-04-06T12:24:51.497Z,24.80
2023-04-06T12:27:20.968Z,24.95
2023-04-06T12:29:50.229Z,22.24
2023-04-06T12:32:20.153Z,23.26
2023-04-06T12:34:49.737Z,24.54
2023-04-06T12:37:21.464Z,22.37
2023-04-06T12:39:52.079Z,24.06
2023-04-06T12:42:21.762Z,21.61
2023-04-06T12:44:51.093Z,19.56
2023-04-06T12:47:20.336Z,20.40
2023-04-06T12:49:49.669Z,20.22
2023-04-06T12:52:21.449Z,20.89
2023-04-06T12:54:58.677Z,20.12
2023-04-06T12:57:28.348Z,20.74
2023-04-06T12:59:57.717Z,19.74
2023-04-06T13:02:27.288Z,19.06
2023-04-06T13:04:56.573Z,19.31
2023-04-06T13:07:26.009Z,22.72
2023-04-06T13:09:56.648Z,21.02
2023-04-06T13:12:27.170Z,19.24
2023-04-06T13:14:56.545Z,19.23
2023-04-06T13:17:25.992Z,19.65
2023-04-06T13:19:55.411Z,21.79
2023-04-06T13:22:24.615Z,19.47
2023-04-06T13:24:53.831Z,16.96
2023-04-06T13:27:25.830Z,16.39
2023-04-06T13:29:55.058Z,20.33
2023-04-06T13:32:24.607Z,19.55
2023-04-06T13:34:57.254Z,21.37
2023-04-06T13:37:26.662Z,18.54
2023-04-06T13:39:56.095Z,18.60
2023-04-06T13:42:26.814Z,17.17
2023-04-06T13:44:56.076Z,14.57
2023-04-06T13:47:25.487Z,18.03
2023-04-06T13:49:54.920Z,19.59
2023-04-06T13:52:24.614Z,18.71
2023-04-06T13:54:54.528Z,17.90
2023-04-06T13:57:23.594Z,17.24
2023-04-06T13:59:54.168Z,16.54
2023-04-06T14:02:28.563Z,17.41
2023-04-06T14:04:57.847Z,16.82
2023-04-06T14:07:27.105Z,16.52
2023-04-06T14:09:56.230Z,15.40
2023-04-06T14:12:25.262Z,11.37
2023-04-06T14:14:55.721Z,11.19
2023-04-06T14:17:24.965Z,14.68
2023-04-06T14:19:54.094Z,15.98
2023-04-06T14:22:25.229Z,16.82
2023-04-06T14:24:54.284Z,17.14
2023-04-06T14:27:23.281Z,17.71
2023-04-06T14:29:54.497Z,16.85
2023-04-06T14:32:25.740Z,15.84
2023-04-06T14:34:54.795Z,14.13
2023-04-06T14:37:23.864Z,15.24
2023-04-06T14:39:55.414Z,16.28
2023-04-06T14:42:24.421Z,15.32
2023-04-06T14:44:54.775Z,14.41
2023-04-06T14:47:25.627Z,15.54
2023-04-06T14:49:58.647Z,15.53
2023-04-06T14:52:27.936Z,17.56
2023-04-06T14:54:57.856Z,16.93
2023-04-06T14:57:26.938Z,18.91
2023-04-06T14:59:56.200Z,20.00
2023-04-06T15:02:28.166Z,19.39
2023-04-06T15:05:00.602Z,19.43
2023-04-06T15:07:31.469Z,19.46
2023-04-06T15:10:00.696Z,19.59
2023-04-06T15:12:30.576Z,18.01
2023-04-06T15:15:01.938Z,17.46
2023-04-06T15:17:32.342Z,16.99
2023-04-06T15:20:01.505Z,16.01
2023-04-06T15:22:31.053Z,15.80
2023-04-06T15:25:00.034Z,14.58
2023-04-06T15:27:29.069Z,13.62
2023-04-06T15:29:59.557Z,12.83
2023-04-06T15:32:28.752Z,15.42
2023-04-06T15:35:01.952Z,16.16
2023-04-06T15:37:31.581Z,14.40
2023-04-06T15:40:02.423Z,16.17
2023-04-06T15:42:31.505Z,17.75
2023-04-06T15:45:00.614Z,18.40
2023-04-06T15:47:29.693Z,16.55
2023-04-06T15:50:00.621Z,14.90
2023-04-06T15:52:29.810Z,14.00
2023-04-06T15:54:59.021Z,15.00
2023-04-06T15:57:28.138Z,16.28
2023-04-06T15:59:57.226Z,17.08
2023-04-06T16:02:26.729Z,15.37
2023-04-06T16:04:56.960Z,15.69
2023-04-06T16:07:30.339Z,15.36
2023-04-06T16:10:00.175Z,15.96
2023-04-06T16:12:29.403Z,16.17
2023-04-06T16:14:58.453Z,16.33
2023-04-06T16:17:27.726Z,16.27
2023-04-06T16:19:58.881Z,15.49
2023-04-06T16:22:29.618Z,16.30
2023-04-06T16:24:58.772Z,16.38
2023-04-06T16:27:27.898Z,17.35
2023-04-06T16:29:57.029Z,15.78
2023-04-06T16:32:26.089Z,16.64
2023-04-06T16:34:56.040Z,17.13
2023-04-06T16:37:26.913Z,16.41
2023-04-06T16:40:00.230Z,17.65
2023-04-06T16:42:29.335Z,19.89
2023-04-06T16:44:58.767Z,18.68
2023-04-06T16:47:28.247Z,18.43
2023-04-06T16:50:05.019Z,18.99
2023-04-06T16:52:37.263Z,19.38
2023-04-06T16:55:09.803Z,20.38
2023-04-06T16:57:40.137Z,21.04
2023-04-06T17:00:10.672Z,21.51
2023-04-06T17:02:39.934Z,24.18
2023-04-06T17:05:09.966Z,26.04
2023-04-06T17:07:39.017Z,26.52
2023-04-06T17:10:10.744Z,26.98
2023-04-06T17:12:39.986Z,28.02
2023-04-06T17:15:10.771Z,27.56
2023-04-06T17:17:40.611Z,27.68
2023-04-06T17:20:10.774Z,27.84
2023-04-06T17:22:39.901Z,28.98
2023-04-06T17:25:11.695Z,29.12
2023-04-06T17:27:40.808Z,29.54
2023-04-06T17:30:11.656Z,29.68
2023-04-06T17:32:41.689Z,29.79
2023-04-06T17:35:12.414Z,29.95
2023-04-06T17:37:44.545Z,30.16
2023-04-06T17:40:15.736Z,30.06
2023-04-06T17:42:44.893Z,31.00
2023-04-06T17:45:21.583Z,30.45
2023-04-06T17:47:50.628Z,30.86
2023-04-06T17:50:19.872Z,30.80
2023-04-06T17:52:50.037Z,30.91
2023-04-06T17:55:22.758Z,31.61
2023-04-06T17:57:52.062Z,31.47
2023-04-06T18:00:24.390Z,31.39
2023-04-06T18:02:57.402Z,30.73
2023-04-06T18:05:27.521Z,31.21
2023-04-06T18:07:59.343Z,31.07
2023-04-06T18:10:29.958Z,30.71
2023-04-06T18:13:01.528Z,31.41
2023-04-06T18:15:31.388Z,31.91
2023-04-06T18:18:01.041Z,32.51
2023-04-06T18:20:30.594Z,31.79
2023-04-06T18:22:59.780Z,31.61
2023-04-06T18:25:30.521Z,32.20
2023-04-06T18:28:02.748Z,32.76
2023-04-06T18:30:32.146Z,33.14
2023-04-06T18:33:05.088Z,33.21
2023-04-06T18:35:34.752Z,33.14
2023-04-06T18:38:04.608Z,33.48
2023-04-06T18:40:42.577Z,33.34
2023-04-06T18:43:12.242Z,33.78
2023-04-06T18:45:44.018Z,33.72
2023-04-06T18:48:17.706Z,34.22
2023-04-06T18:50:57.785Z,34.42
2023-04-06T18:53:27.466Z,35.14
2023-04-06T18:56:14.466Z,34.88
2023-04-06T18:58:49.265Z,35.65
2023-04-06T19:01:35.222Z,35.89
2023-04-06T19:04:07.596Z,36.99
2023-04-06T19:06:39.170Z,36.37
2023-04-06T19:09:16.518Z,37.51
2023-04-06T19:11:49.650Z,38.63
2023-04-06T19:14:18.844Z,38.05
2023-04-06T19:16:52.529Z,36.23
2023-04-06T19:19:22.996Z,37.04
2023-04-06T19:21:52.449Z,37.68
2023-04-06T19:24:34.402Z,36.73
2023-04-06T19:27:10.622Z,36.52
2023-04-06T19:29:40.746Z,36.44
2023-04-06T19:32:11.999Z,37.66
2023-04-06T19:34:42.100Z,37.05
2023-04-06T19:37:11.954Z,37.47
2023-04-06T19:39:46.440Z,37.73
2023-04-06T19:42:23.537Z,38.67
2023-04-06T19:44:57.457Z,39.21
2023-04-06T19:47:36.713Z,40.16
2023-04-06T19:50:18.592Z,41.27
2023-04-06T19:52:53.542Z,43.14
2023-04-06T19:55:37.336Z,42.11
2023-04-06T19:58:08.232Z,42.68
2023-04-06T20:00:43.942Z,43.46
2023-04-06T20:03:24.464Z,44.84
2023-04-06T20:06:01.512Z,45.29
2023-04-06T20:08:33.214Z,46.50
2023-04-06T20:11:07.634Z,46.08
2023-04-06T20:13:39.340Z,46.58
2023-04-06T20:16:09.429Z,49.48
2023-04-06T20:18:38.643Z,49.51
2023-04-06T20:21:07.921Z,51.35
2023-04-06T20:23:37.640Z,51.58
2023-04-06T20:26:10.751Z,50.03
2023-04-06T20:28:41.612Z,50.16
2023-04-06T20:31:12.141Z,51.84
2023-04-06T20:33:41.599Z,51.43
2023-04-06T20:36:11.282Z,50.56
2023-04-06T20:38:40.816Z,49.86
2023-04-06T20:41:10.584Z,51.61
2023-04-06T20:43:41.594Z,51.65
2023-04-06T20:46:19.649Z,52.32
2023-04-06T20:48:50.936Z,52.34
2023-04-06T20:51:21.299Z,52.50
2023-04-06T20:53:50.973Z,53.07
2023-04-06T20:56:20.208Z,55.18
2023-04-06T20:58:51.442Z,56.35
2023-04-06T21:01:21.277Z,56.91
2023-04-06T21:03:50.779Z,56.63
2023-04-06T21:06:20.116Z,56.67
2023-04-06T21:08:49.188Z,57.88
2023-04-06T21:11:18.327Z,58.67
2023-04-06T21:13:47.555Z,59.67
2023-04-06T21:16:18.043Z,61.10
2023-04-06T21:18:47.188Z,62.00
2023-04-06T21:21:17.484Z,63.29
2023-04-06T21:23:46.943Z,64.88
2023-04-06T21:26:16.769Z,64.62
2023-04-06T21:28:46.826Z,66.08
2023-04-06T21:31:19.878Z,66.68
2023-04-06T21:33:49.241Z,67.32
2023-04-06T21:36:18.329Z,68.46
2023-04-06T21:38:47.350Z,69.47
2023-04-06T21:41:32.365Z,72.69
2023-04-06T21:44:01.784Z,74.39
2023-04-06T21:46:35.482Z,73.74
2023-04-06T21:49:12.666Z,73.16
2023-04-06T21:51:42.130Z,74.41
2023-04-06T21:54:11.352Z,75.19
2023-04-06T21:56:40.862Z,74.65
2023-04-06T21:59:09.990Z,75.49
2023-04-06T22:01:40.439Z,75.75
2023-04-06T22:04:09.662Z,76.44
2023-04-06T22:06:39.028Z,76.23
2023-04-06T22:09:08.442Z,76.11
2023-04-06T22:11:37.677Z,77.08
2023-04-06T22:14:07.054Z,79.25
2023-04-06T22:16:36.277Z,80.40
2023-04-06T22:19:06.661Z,80.99
2023-04-06T22:21:35.846Z,84.05
2023-04-06T22:24:05.380Z,86.39
2023-04-06T22:26:34.601Z,86.02
2023-04-06T22:29:03.594Z,85.56
2023-04-06T22:31:32.681Z,88.99
2023-04-06T22:34:01.786Z,87.81
2023-04-06T22:36:32.344Z,86.80
2023-04-06T22:39:01.543Z,86.53
2023-04-06T22:41:30.607Z,84.22
2023-04-06T22:44:01.170Z,83.76
2023-04-06T22:46:32.105Z,85.69
2023-04-06T22:49:01.076Z,83.42
2023-04-06T22:51:34.139Z,77.82
2023-04-06T22:54:03.441Z,77.94
2023-04-06T22:56:32.524Z,80.48
2023-04-06T22:59:01.577Z,80.42
2023-04-06T23:01:30.857Z,78.25
2023-04-06T23:04:00.645Z,77.45
2023-04-06T23:06:31.148Z,78.82
2023-04-06T23:09:00.162Z,81.29
2023-04-06T23:11:29.085Z,81.11
2023-04-06T23:13:58.155Z,82.58
2023-04-06T23:16:27.595Z,82.66
2023-04-06T23:18:56.902Z,80.87
2023-04-06T23:21:29.736Z,80.41
2023-04-06T23:24:01.290Z,79.86
2023-04-06T23:26:30.692Z,78.89
2023-04-06T23:28:59.672Z,79.91
2023-04-06T23:31:28.799Z,81.73
2023-04-06T23:33:57.834Z,82.89
2023-04-06T23:36:27.089Z,81.44
2023-04-06T23:38:56.424Z,80.36
2023-04-06T23:41:27.767Z,76.98
2023-04-06T23:43:57.295Z,76.27
2023-04-06T23:46:26.574Z,78.52
2023-04-06T23:48:55.911Z,79.13
2023-04-06T23:51:24.856Z,81.19
2023-04-06T23:53:53.889Z,82.11
2023-04-06T23:56:23.992Z,80.34
2023-04-06T23:58:54.411Z,79.58
